Time;durP1;ratioP1;P1;durP2;ratioP2;P2;SDS_P1;SDS_P2;PMS_P1;PMS_P2;Temp;Humidity;BMP_temperature;BMP_pressure;BME280_temperature;BME280_humidity;BME280_pressure;Samples;Min_cycle;Max_cycle;Signal;HPM_P1;HPM_P2
2022/03/08 00:00:57;;;;;;;;;;;2.00;99.90;;;;;;5095591;28;19908;-54
2022/03/08 00:03:22;;;;;;;;;;;2.00;99.90;;;;;;5094888;28;19908;-56
2022/03/08 00:05:48;;;;;;;;;;;2.00;99.90;;;;;;5095340;28;19920;-54
2022/03/08 00:08:13;;;;;;;;;;;2.00;99.90;;;;;;5094623;28;19919;-55
2022/03/08 00:10:39;;;;;;;;;;;2.00;99.90;;;;;;5094819;28;20297;-55
2022/03/08 00:13:04;;;;;;;;;;;2.00;99.90;;;;;;5095315;28;19915;-54
2022/03/08 00:15:30;;;;;;;;;;;2.00;99.90;;;;;;5095229;28;19908;-56
2022/03/08 00:17:56;;;;;;;;;;;2.00;99.90;;;;;;5094640;28;19908;-56
2022/03/08 00:20:22;;;;;;;;;;;2.00;99.90;;;;;;5095045;28;19915;-54
2022/03/08 00:22:47;;;;;;;;;;;2.10;99.90;;;;;;5095219;28;19914;-55
2022/03/08 00:25:13;;;;;;;;;;;1.90;99.90;;;;;;5085629;28;20394;-53
2022/03/08 00:27:42;;;;;;;;;;;1.90;99.90;;;;;;5074725;28;20286;-54
2022/03/08 00:30:08;;;;;;;;;;;1.80;99.90;;;;;;5074281;28;19909;-54
2022/03/08 00:32:33;;;;;;;;;;;1.80;99.90;;;;;;5074173;28;19921;-55
2022/03/08 00:34:59;;;;;;;;;;;1.70;99.90;;;;;;5074534;28;19909;-53
2022/03/08 00:37:24;;;;;;;;;;;1.70;99.90;;;;;;5074016;28;19961;-56
2022/03/08 00:39:50;;;;;;;;;;;1.70;99.90;;;;;;5074512;28;19909;-54
2022/03/08 00:42:16;;;;;;;;;;;1.70;99.90;;;;;;5074288;28;20245;-54
2022/03/08 00:44:42;;;;;;;;;;;1.70;99.90;;;;;;5073765;28;19916;-54
2022/03/08 00:47:08;;;;;;;;;;;1.70;99.90;;;;;;5074394;28;19920;-53
2022/03/08 00:49:34;;;;;;;;;;;1.70;99.90;;;;;;5074097;28;19908;-55
2022/03/08 00:51:59;;;;;;;;;;;1.70;99.90;;;;;;5081536;28;20018;-54
2022/03/08 00:54:25;;;;;;;;;;;1.70;99.90;;;;;;5094539;28;19961;-54
2022/03/08 00:56:51;;;;;;;;;;;1.70;99.90;;;;;;5094313;28;19915;-55
2022/03/08 00:59:16;;;;;;;;;;;1.70;99.90;;;;;;5093894;28;19908;-56
2022/03/08 01:01:42;;;;;;;;;;;1.70;99.90;;;;;;5094302;28;20006;-56
2022/03/08 01:04:07;;;;;;;;;;;1.60;99.90;;;;;;5094320;28;20389;-55
2022/03/08 01:06:33;;;;;;;;;;;1.60;99.90;;;;;;5093540;28;20383;-54
2022/03/08 01:08:58;;;;;;;;;;;1.50;99.90;;;;;;5094255;28;19920;-56
2022/03/08 01:11:24;;;;;;;;;;;1.40;99.90;;;;;;5088598;28;20368;-56
2022/03/08 01:13:49;;;;;;;;;;;1.40;99.90;;;;;;5073358;28;20001;-56
2022/03/08 01:16:15;;;;;;;;;;;1.30;99.90;;;;;;5055936;28;19962;-55
2022/03/08 01:18:40;;;;;;;;;;;1.30;99.90;;;;;;5073793;28;19909;-55
2022/03/08 01:21:06;;;;;;;;;;;1.30;99.90;;;;;;5073423;28;20485;-56
2022/03/08 01:23:31;;;;;;;;;;;1.20;99.90;;;;;;5073657;28;20359;-55
2022/03/08 01:25:57;;;;;;;;;;;1.20;99.90;;;;;;5073737;28;20024;-55
2022/03/08 01:28:22;;;;;;;;;;;1.20;99.90;;;;;;5073179;28;20434;-54
2022/03/08 01:30:47;;;;;;;;;;;1.10;99.90;;;;;;5073644;28;19915;-56
2022/03/08 01:33:13;;;;;;;;;;;1.10;99.90;;;;;;5073291;28;19920;-54
2022/03/08 01:35:38;;;;;;;;;;;1.10;99.90;;;;;;5073013;28;20271;-56
2022/03/08 01:38:04;;;;;;;;;;;1.00;99.90;;;;;;5073637;28;19923;-56
2022/03/08 01:40:29;;;;;;;;;;;1.00;99.90;;;;;;5072784;28;19914;-54
2022/03/08 01:42:55;;;;;;;;;;;0.90;99.90;;;;;;5073629;28;20019;-56
2022/03/08 01:45:22;;;;;;;;;;;0.90;99.90;;;;;;5073523;28;20411;-55
2022/03/08 01:47:47;;;;;;;;;;;0.90;99.90;;;;;;5073013;28;19912;-56
2022/03/08 01:50:13;;;;;;;;;;;0.90;99.90;;;;;;5073455;28;19909;-55
2022/03/08 01:52:40;;;;;;;;;;;0.90;99.90;;;;;;5093327;28;19922;-55
2022/03/08 01:55:06;;;;;;;;;;;1.00;99.90;;;;;;5093210;28;20297;-56
2022/03/08 01:57:32;;;;;;;;;;;1.00;99.90;;;;;;5093529;28;19994;-55
2022/03/08 01:59:57;;;;;;;;;;;1.00;99.90;;;;;;5093570;28;20014;-55
2022/03/08 02:02:23;;;;;;;;;;;1.00;99.90;;;;;;5093003;28;20274;-56
2022/03/08 02:04:49;;;;;;;;;;;1.00;99.90;;;;;;5093427;28;19919;-55
2022/03/08 02:07:14;;;;;;;;;;;1.00;99.90;;;;;;5094346;28;20001;-56
2022/03/08 02:09:40;;;;;;;;;;;1.00;99.90;;;;;;5097172;28;20308;-54
2022/03/08 02:12:06;;;;;;;;;;;1.10;99.90;;;;;;5094461;28;19974;-54
2022/03/08 02:14:31;;;;;;;;;;;1.00;99.90;;;;;;5097483;28;19957;-54
2022/03/08 02:16:57;;;;;;;;;;;1.00;99.90;;;;;;5096927;28;19912;-55
2022/03/08 02:19:22;;;;;;;;;;;1.00;99.90;;;;;;5097482;28;19986;-54
2022/03/08 02:21:49;;;;;;;;;;;1.00;99.90;;;;;;5097551;28;20366;-55
2022/03/08 02:24:14;;;;;;;;;;;1.00;99.90;;;;;;5090064;28;19931;-56
2022/03/08 02:26:40;;;;;;;;;;;0.90;99.90;;;;;;5089678;28;19920;-56
2022/03/08 02:29:06;;;;;;;;;;;0.80;99.90;;;;;;5097247;28;19995;-55
2022/03/08 02:31:31;;;;;;;;;;;0.80;99.90;;;;;;5096283;28;20387;-56
2022/03/08 02:33:57;;;;;;;;;;;0.90;99.90;;;;;;5097150;28;20321;-56
2022/03/08 02:36:22;;;;;;;;;;;0.90;99.90;;;;;;5093871;28;20333;-56
2022/03/08 02:38:48;;;;;;;;;;;0.90;99.90;;;;;;5096658;28;19908;-56
2022/03/08 02:41:14;;;;;;;;;;;1.00;99.90;;;;;;5097134;28;19908;-56
2022/03/08 02:43:39;;;;;;;;;;;1.00;99.90;;;;;;5097087;28;20470;-55
2022/03/08 02:46:04;;;;;;;;;;;1.00;99.90;;;;;;5085812;28;19921;-56
2022/03/08 02:48:30;;;;;;;;;;;1.00;99.90;;;;;;5076592;28;19909;-56
2022/03/08 02:50:56;;;;;;;;;;;1.00;99.90;;;;;;5076092;28;19908;-56
2022/03/08 02:53:22;;;;;;;;;;;1.00;99.90;;;;;;5076412;28;19915;-55
2022/03/08 02:55:48;;;;;;;;;;;0.90;99.90;;;;;;5076542;28;19912;-56
2022/03/08 02:58:13;;;;;;;;;;;0.90;99.90;;;;;;5075942;28;19916;-55
2022/03/08 03:00:39;;;;;;;;;;;0.90;99.90;;;;;;5076198;28;19920;-55
2022/03/08 03:03:05;;;;;;;;;;;0.80;99.90;;;;;;5088448;28;19947;-57
2022/03/08 03:05:30;;;;;;;;;;;0.80;99.90;;;;;;5095974;28;19952;-56
2022/03/08 03:07:56;;;;;;;;;;;0.80;99.90;;;;;;5096663;28;19908;-55
2022/03/08 03:10:23;;;;;;;;;;;0.80;99.90;;;;;;5096553;28;19954;-56
2022/03/08 03:12:49;;;;;;;;;;;0.70;99.90;;;;;;5095981;28;20011;-56
2022/03/08 03:15:15;;;;;;;;;;;0.70;99.90;;;;;;5096426;28;19959;-55
2022/03/08 03:17:40;;;;;;;;;;;0.70;99.90;;;;;;5096382;28;19999;-55
2022/03/08 03:20:07;;;;;;;;;;;0.70;99.90;;;;;;5094503;28;20011;-54
2022/03/08 03:22:33;;;;;;;;;;;0.70;99.90;;;;;;5096137;28;19915;-54
2022/03/08 03:24:58;;;;;;;;;;;0.60;99.90;;;;;;5096180;28;19912;-54
2022/03/08 03:27:24;;;;;;;;;;;0.60;99.90;;;;;;5095599;28;20386;-54
2022/03/08 03:29:49;;;;;;;;;;;0.60;99.90;;;;;;5096090;28;20298;-56
2022/03/08 03:32:15;;;;;;;;;;;0.60;99.90;;;;;;5080494;28;20327;-55
2022/03/08 03:34:40;;;;;;;;;;;0.60;99.90;;;;;;5075243;28;20255;-55
2022/03/08 03:37:05;;;;;;;;;;;0.60;99.90;;;;;;5075863;28;20313;-56
2022/03/08 03:39:31;;;;;;;;;;;0.50;99.90;;;;;;5075685;28;19909;-54
2022/03/08 03:41:57;;;;;;;;;;;0.50;99.90;;;;;;5075137;28;19915;-56
2022/03/08 03:44:22;;;;;;;;;;;0.50;99.90;;;;;;5075445;28;19908;-56
2022/03/08 03:46:47;;;;;;;;;;;0.50;99.90;;;;;;5075671;28;19912;-53
2022/03/08 03:49:14;;;;;;;;;;;0.50;99.90;;;;;;5075084;28;19935;-53
2022/03/08 03:51:40;;;;;;;;;;;0.50;99.90;;;;;;5075482;28;20034;-56
2022/03/08 03:54:05;;;;;;;;;;;0.60;99.90;;;;;;5075084;28;19975;-54
2022/03/08 03:56:31;;;;;;;;;;;0.60;99.90;;;;;;5075393;28;19909;-54
2022/03/08 03:58:56;;;;;;;;;;;0.70;99.90;;;;;;5075449;28;19909;-56
2022/03/08 04:01:22;;;;;;;;;;;0.70;99.90;;;;;;5080935;28;19962;-55
2022/03/08 04:03:47;;;;;;;;;;;0.70;99.90;;;;;;5095479;28;19924;-56
2022/03/08 04:06:13;;;;;;;;;;;0.70;99.90;;;;;;5095482;28;19967;-56
2022/03/08 04:08:38;;;;;;;;;;;0.70;99.90;;;;;;5094862;28;20328;-56
2022/03/08 04:11:04;;;;;;;;;;;0.70;99.90;;;;;;5095368;28;19908;-54
2022/03/08 04:13:29;;;;;;;;;;;0.70;99.90;;;;;;5095242;28;19912;-56
2022/03/08 04:15:54;;;;;;;;;;;0.70;99.90;;;;;;5094875;28;19995;-54
2022/03/08 04:18:20;;;;;;;;;;;0.70;99.90;;;;;;5095057;28;19939;-55
2022/03/08 04:20:45;;;;;;;;;;;0.70;99.90;;;;;;5095251;28;19908;-55
2022/03/08 04:23:11;;;;;;;;;;;0.80;99.90;;;;;;5094591;28;19912;-55
2022/03/08 04:25:37;;;;;;;;;;;0.80;99.90;;;;;;5094856;28;20359;-57
2022/03/08 04:28:03;;;;;;;;;;;0.80;99.90;;;;;;5094943;28;19908;-56
2022/03/08 04:30:29;;;;;;;;;;;0.80;99.90;;;;;;5091333;28;19909;-55
2022/03/08 04:32:54;;;;;;;;;;;0.80;99.90;;;;;;5074315;28;19927;-56
2022/03/08 04:35:20;;;;;;;;;;;0.80;99.90;;;;;;5074497;28;19983;-55
2022/03/08 04:37:45;;;;;;;;;;;0.80;99.90;;;;;;5075058;28;19912;-56
2022/03/08 04:40:11;;;;;;;;;;;0.80;99.90;;;;;;5074599;28;19948;-55
2022/03/08 04:42:37;;;;;;;;;;;0.80;99.90;;;;;;5074325;28;19916;-56
2022/03/08 04:45:03;;;;;;;;;;;0.80;99.90;;;;;;5073868;28;19921;-55
2022/03/08 04:47:28;;;;;;;;;;;0.70;99.90;;;;;;5074312;28;19954;-55
2022/03/08 04:49:54;;;;;;;;;;;0.80;99.90;;;;;;5074399;28;20305;-55
2022/03/08 04:52:20;;;;;;;;;;;0.70;99.90;;;;;;5073746;28;19958;-54
2022/03/08 04:54:45;;;;;;;;;;;0.60;99.90;;;;;;5074298;28;19908;-54
2022/03/08 04:57:10;;;;;;;;;;;0.60;99.90;;;;;;5074137;28;19912;-56
2022/03/08 04:59:36;;;;;;;;;;;0.60;99.90;;;;;;5073536;28;19909;-56
2022/03/08 05:02:01;;;;;;;;;;;0.50;99.90;;;;;;5088818;28;19912;-55
2022/03/08 05:04:27;;;;;;;;;;;0.50;99.90;;;;;;5093665;28;19908;-56
2022/03/08 05:06:52;;;;;;;;;;;0.40;99.90;;;;;;5094337;28;19949;-57
2022/03/08 05:09:18;;;;;;;;;;;0.40;99.90;;;;;;5094145;28;19915;-56
2022/03/08 05:11:44;;;;;;;;;;;0.40;99.90;;;;;;5093617;28;19912;-57
2022/03/08 05:14:09;;;;;;;;;;;0.40;99.90;;;;;;5094135;28;19995;-57
2022/03/08 05:16:35;;;;;;;;;;;0.40;99.90;;;;;;5094019;28;20012;-56
2022/03/08 05:19:00;;;;;;;;;;;0.40;99.90;;;;;;5093640;28;19909;-54
2022/03/08 05:21:26;;;;;;;;;;;0.40;99.90;;;;;;5094058;28;20496;-56
2022/03/08 05:23:51;;;;;;;;;;;0.30;99.90;;;;;;5094051;28;20370;-57
2022/03/08 05:26:17;;;;;;;;;;;0.30;99.90;;;;;;5093000;28;19919;-55
2022/03/08 05:28:46;;;;;;;;;;;0.30;99.90;;;;;;5094070;28;19912;-56
2022/03/08 05:31:12;;;;;;;;;;;0.30;99.90;;;;;;5082885;28;19912;-56
2022/03/08 05:33:38;;;;;;;;;;;0.20;99.90;;;;;;5073160;28;19919;-56
2022/03/08 05:36:03;;;;;;;;;;;0.20;99.90;;;;;;5074637;28;20282;-57
2022/03/08 05:38:29;;;;;;;;;;;0.20;99.90;;;;;;5073538;28;19915;-55
2022/03/08 05:40:54;;;;;;;;;;;0.20;99.90;;;;;;5073026;28;19963;-55
2022/03/08 05:43:20;;;;;;;;;;;0.20;99.90;;;;;;5072719;28;19915;-55
2022/03/08 05:45:45;;;;;;;;;;;0.20;99.90;;;;;;5073523;28;19923;-57
2022/03/08 05:48:11;;;;;;;;;;;0.10;99.90;;;;;;5054982;28;19908;-56
2022/03/08 05:50:37;;;;;;;;;;;0.10;99.90;;;;;;5085688;28;19951;-56
2022/03/08 05:53:02;;;;;;;;;;;0.10;99.90;;;;;;5093622;28;19908;-56
2022/03/08 05:55:28;;;;;;;;;;;0.10;99.90;;;;;;5093082;28;19915;-56
2022/03/08 05:57:53;;;;;;;;;;;0.10;99.90;;;;;;5093609;28;19908;-56
2022/03/08 06:00:19;;;;;;;;;;;0.10;99.90;;;;;;5093550;28;19920;-56
2022/03/08 06:02:44;;;;;;;;;;;0.10;99.90;;;;;;5093049;28;19908;-56
2022/03/08 06:05:10;;;;;;;;;;;0.10;99.90;;;;;;5093415;28;19912;-56
2022/03/08 06:07:35;;;;;;;;;;;0.10;99.90;;;;;;5093359;28;19919;-56
2022/03/08 06:10:02;;;;;;;;;;;0.10;99.90;;;;;;5092948;28;20355;-57
2022/03/08 06:12:27;;;;;;;;;;;0.10;99.90;;;;;;5093410;28;19915;-57
2022/03/08 06:14:53;;;;;;;;;;;0.10;99.90;;;;;;5092833;28;19908;-55
2022/03/08 06:17:18;;;;;;;;;;;0.10;99.90;;;;;;5093409;28;19977;-55
2022/03/08 06:19:44;;;;;;;;;;;0.20;99.90;;;;;;5089531;28;20431;-56
2022/03/08 06:22:09;;;;;;;;;;;0.20;99.90;;;;;;5072683;28;19912;-56
2022/03/08 06:24:34;;;;;;;;;;;0.30;99.90;;;;;;5073061;28;20375;-55
2022/03/08 06:27:00;;;;;;;;;;;0.30;99.90;;;;;;5073087;28;20249;-56
2022/03/08 06:29:25;;;;;;;;;;;0.40;99.90;;;;;;5072496;28;19909;-56
2022/03/08 06:31:51;;;;;;;;;;;0.40;99.90;;;;;;5072778;28;19928;-56
2022/03/08 06:34:16;;;;;;;;;;;0.50;99.90;;;;;;5072987;28;20260;-55
2022/03/08 06:36:44;;;;;;;;;;;0.50;99.90;;;;;;5071768;28;22371;-56
2022/03/08 06:39:09;;;;;;;;;;;0.60;99.90;;;;;;5072926;28;19986;-56
2022/03/08 06:41:35;;;;;;;;;;;0.60;99.90;;;;;;5073048;28;19921;-57
2022/03/08 06:44:01;;;;;;;;;;;0.60;99.90;;;;;;5072491;28;19915;-56
2022/03/08 06:46:26;;;;;;;;;;;0.70;99.90;;;;;;5072789;28;19923;-56
2022/03/08 06:48:52;;;;;;;;;;;0.80;99.90;;;;;;5073028;28;19908;-56
2022/03/08 06:51:17;;;;;;;;;;;0.80;99.90;;;;;;5088500;28;19942;-56
2022/03/08 06:53:42;;;;;;;;;;;0.80;99.90;;;;;;5094881;28;19937;-56
2022/03/08 06:56:08;;;;;;;;;;;0.90;99.90;;;;;;5096437;28;19975;-56
2022/03/08 06:58:34;;;;;;;;;;;0.90;99.90;;;;;;5095889;28;20378;-56
2022/03/08 07:00:59;;;;;;;;;;;1.00;99.90;;;;;;5094082;28;19935;-55
2022/03/08 07:03:24;;;;;;;;;;;1.00;99.90;;;;;;5089927;28;19911;-56
2022/03/08 07:05:50;;;;;;;;;;;1.10;99.90;;;;;;5115609;28;20278;-56
2022/03/08 07:08:15;;;;;;;;;;;1.20;99.90;;;;;;5102748;28;20353;-57
2022/03/08 07:10:41;;;;;;;;;;;1.20;99.90;;;;;;5095926;28;19915;-55
2022/03/08 07:13:06;;;;;;;;;;;1.30;99.90;;;;;;5094307;28;20248;-56
2022/03/08 07:15:32;;;;;;;;;;;1.30;99.90;;;;;;5094877;28;19919;-56
2022/03/08 07:17:58;;;;;;;;;;;1.40;99.90;;;;;;5095478;28;19912;-56
2022/03/08 07:20:24;;;;;;;;;;;1.50;99.90;;;;;;5095128;28;19914;-56
2022/03/08 07:22:49;;;;;;;;;;;1.60;99.90;;;;;;5095638;28;19908;-54
2022/03/08 07:25:16;;;;;;;;;;;1.60;99.90;;;;;;5094781;28;19950;-56
2022/03/08 07:27:42;;;;;;;;;;;1.70;99.90;;;;;;5095435;28;19908;-56
2022/03/08 07:30:08;;;;;;;;;;;1.80;99.90;;;;;;5095349;28;19919;-54
2022/03/08 07:32:33;;;;;;;;;;;1.90;99.90;;;;;;5094759;28;19920;-56
2022/03/08 07:34:59;;;;;;;;;;;2.00;99.90;;;;;;5091585;28;19920;-56
2022/03/08 07:37:24;;;;;;;;;;;2.00;99.90;;;;;;5075212;28;19955;-56
2022/03/08 07:39:51;;;;;;;;;;;2.10;99.90;;;;;;5074380;28;19916;-54
2022/03/08 07:42:16;;;;;;;;;;;2.20;99.90;;;;;;5076028;28;19916;-56
2022/03/08 07:44:42;;;;;;;;;;;2.30;99.90;;;;;;5102134;28;19960;-56
2022/03/08 07:47:08;;;;;;;;;;;2.40;99.90;;;;;;5114933;28;19912;-56
2022/03/08 07:49:34;;;;;;;;;;;2.50;99.90;;;;;;5100112;28;19908;-55
2022/03/08 07:51:59;;;;;;;;;;;2.60;99.90;;;;;;5094832;28;19908;-56
2022/03/08 07:54:25;;;;;;;;;;;2.60;99.90;;;;;;5094460;28;19915;-57
2022/03/08 07:56:50;;;;;;;;;;;2.70;99.90;;;;;;5094629;28;19928;-55
2022/03/08 07:59:16;;;;;;;;;;;2.80;99.90;;;;;;5095013;28;19908;-56
2022/03/08 08:01:42;;;;;;;;;;;2.90;99.90;;;;;;5102174;28;19908;-55
2022/03/08 08:04:07;;;;;;;;;;;3.00;99.90;;;;;;5115110;28;19947;-56
2022/03/08 08:06:33;;;;;;;;;;;3.10;99.90;;;;;;5114222;28;20378;-56
2022/03/08 08:08:58;;;;;;;;;;;3.20;99.90;;;;;;5114455;28;20368;-56
2022/03/08 08:11:23;;;;;;;;;;;3.30;99.90;;;;;;5115169;28;19945;-55
2022/03/08 08:13:50;;;;;;;;;;;3.40;99.90;;;;;;5114792;28;19934;-56
2022/03/08 08:16:18;;;;;;;;;;;3.50;99.90;;;;;;5114486;28;19907;-56
2022/03/08 08:18:43;;;;;;;;;;;3.50;99.90;;;;;;5114879;28;20434;-56
2022/03/08 08:21:09;;;;;;;;;;;3.60;99.90;;;;;;5114982;28;20002;-55
2022/03/08 08:23:34;;;;;;;;;;;3.70;99.90;;;;;;5114379;28;19908;-57
2022/03/08 08:26:00;;;;;;;;;;;3.80;99.90;;;;;;5114311;28;19927;-56
2022/03/08 08:28:25;;;;;;;;;;;3.90;99.90;;;;;;5114336;28;19908;-56
2022/03/08 08:30:51;;;;;;;;;;;4.00;99.90;;;;;;5114528;28;19908;-56
2022/03/08 08:33:16;;;;;;;;;;;4.00;99.90;;;;;;5114359;28;19935;-56
2022/03/08 08:35:42;;;;;;;;;;;4.20;99.90;;;;;;5114195;28;19912;-55
2022/03/08 08:38:07;;;;;;;;;;;4.20;99.90;;;;;;5100129;28;19909;-56
2022/03/08 08:40:34;;;;;;;;;;;4.30;99.90;;;;;;5094233;28;19914;-55
2022/03/08 08:43:00;;;;;;;;;;;4.40;99.90;;;;;;5076398;28;19913;-57
2022/03/08 08:45:26;;;;;;;;;;;4.50;99.90;;;;;;5073730;28;19919;-55
2022/03/08 08:47:51;;;;;;;;;;;4.60;99.90;;;;;;5073261;28;19917;-55
2022/03/08 08:50:17;;;;;;;;;;;4.70;99.90;;;;;;5073175;28;19931;-56
2022/03/08 08:52:43;;;;;;;;;;;4.80;99.90;;;;;;5073661;28;19909;-55
2022/03/08 08:55:08;;;;;;;;;;;4.90;99.90;;;;;;5072690;28;19978;-55
2022/03/08 08:57:34;;;;;;;;;;;4.90;99.90;;;;;;5077204;28;20371;-56
2022/03/08 09:00:00;;;;;;;;;;;5.10;99.90;;;;;;5112167;28;19908;-57
2022/03/08 09:02:25;;;;;;;;;;;5.20;99.90;;;;;;5106763;28;19962;-56
2022/03/08 09:04:50;;;;;;;;;;;5.20;99.90;;;;;;5092730;28;19912;-56
2022/03/08 09:07:16;;;;;;;;;;;5.40;99.90;;;;;;5093585;28;19912;-57
2022/03/08 09:09:41;;;;;;;;;;;5.50;99.90;;;;;;5093481;28;19908;-56
2022/03/08 09:12:07;;;;;;;;;;;5.60;99.90;;;;;;5092316;28;19908;-56
2022/03/08 09:14:32;;;;;;;;;;;5.70;99.90;;;;;;5093148;28;19950;-56
2022/03/08 09:16:58;;;;;;;;;;;5.80;99.90;;;;;;5093031;28;19908;-57
2022/03/08 09:19:23;;;;;;;;;;;5.90;99.90;;;;;;5092684;28;19908;-55
2022/03/08 09:21:49;;;;;;;;;;;5.90;99.90;;;;;;5092900;28;19908;-56
2022/03/08 09:24:14;;;;;;;;;;;6.10;99.90;;;;;;5093254;28;19916;-56
2022/03/08 09:26:39;;;;;;;;;;;6.20;99.90;;;;;;5091782;28;20296;-56
2022/03/08 09:29:05;;;;;;;;;;;6.30;99.90;;;;;;5071910;28;19923;-54
2022/03/08 09:31:30;;;;;;;;;;;6.50;99.90;;;;;;5072465;28;19920;-56
2022/03/08 09:33:56;;;;;;;;;;;6.60;99.90;;;;;;5071997;28;19915;-55
2022/03/08 09:36:21;;;;;;;;;;;6.70;99.90;;;;;;5076054;28;20304;-55
2022/03/08 09:38:47;;;;;;;;;;;6.80;99.90;;;;;;5080107;28;19931;-56
2022/03/08 09:41:14;;;;;;;;;;;6.90;99.90;;;;;;5113287;28;19915;-55
2022/03/08 09:43:39;;;;;;;;;;;7.00;99.90;;;;;;5102310;28;19908;-56
2022/03/08 09:46:05;;;;;;;;;;;7.10;91.90;;;;;;5092236;28;19935;-56
2022/03/08 09:48:31;;;;;;;;;;;7.10;94.70;;;;;;5093006;28;19935;-56
2022/03/08 09:51:00;;;;;;;;;;;7.30;99.40;;;;;;5092565;28;19981;-56
2022/03/08 09:53:26;;;;;;;;;;;7.40;99.90;;;;;;5092439;28;19908;-57
2022/03/08 09:55:56;;;;;;;;;;;7.60;95.20;;;;;;5081380;28;19920;-55
2022/03/08 09:58:21;;;;;;;;;;;7.60;94.10;;;;;;5092569;28;19912;-56
2022/03/08 10:00:47;;;;;;;;;;;7.70;94.70;;;;;;5092117;28;20331;-55
2022/03/08 10:03:12;;;;;;;;;;;7.80;86.10;;;;;;5092759;28;19982;-56
2022/03/08 10:05:41;;;;;;;;;;;7.90;82.70;;;;;;5092661;28;20371;-56
2022/03/08 10:08:10;;;;;;;;;;;8.00;91.30;;;;;;5091960;28;20282;-56
2022/03/08 10:11:02;;;;;;;;;;;8.00;78.40;;;;;;5092967;28;19990;-56
2022/03/08 10:13:33;;;;;;;;;;;8.10;72.10;;;;;;5086544;28;19915;-56
2022/03/08 10:16:04;;;;;;;;;;;8.10;67.30;;;;;;5091934;28;19915;-56
2022/03/08 10:18:56;;;;;;;;;;;8.20;73.40;;;;;;5092712;28;20006;-56
2022/03/08 10:21:30;;;;;;;;;;;8.20;70.80;;;;;;5085050;28;19908;-56
2022/03/08 10:23:56;;;;;;;;;;;8.40;84.20;;;;;;5092318;28;19915;-55
2022/03/08 10:26:22;;;;;;;;;;;8.50;72.30;;;;;;5076444;28;19920;-55
2022/03/08 10:28:49;;;;;;;;;;;8.60;85.00;;;;;;5073114;28;20042;-55
2022/03/08 10:31:15;;;;;;;;;;;8.60;63.40;;;;;;5076234;28;19909;-55
2022/03/08 10:33:41;;;;;;;;;;;8.70;70.20;;;;;;5076178;28;19925;-54
2022/03/08 10:36:13;;;;;;;;;;;8.70;64.60;;;;;;5075608;28;20374;-55
2022/03/08 10:38:57;;;;;;;;;;;8.80;70.00;;;;;;5076410;28;19974;-56
2022/03/08 10:41:23;;;;;;;;;;;8.90;68.50;;;;;;5075598;28;19953;-55
2022/03/08 10:43:49;;;;;;;;;;;9.00;76.60;;;;;;5074985;28;19999;-56
2022/03/08 10:46:18;;;;;;;;;;;9.10;69.60;;;;;;5076021;28;19921;-56
2022/03/08 10:48:45;;;;;;;;;;;9.00;59.40;;;;;;5075784;28;19908;-56
2022/03/08 10:51:14;;;;;;;;;;;9.10;62.60;;;;;;5075126;28;19987;-56
2022/03/08 10:53:41;;;;;;;;;;;9.20;66.80;;;;;;5075666;28;20081;-55
2022/03/08 10:56:08;;;;;;;;;;;9.40;76.30;;;;;;5088101;28;20030;-57
2022/03/08 10:58:33;;;;;;;;;;;9.50;71.70;;;;;;5095533;28;20302;-54
2022/03/08 11:01:00;;;;;;;;;;;9.70;75.00;;;;;;5095638;28;19908;-55
2022/03/08 11:03:25;;;;;;;;;;;9.80;68.70;;;;;;5095609;28;19914;-56
2022/03/08 11:05:55;;;;;;;;;;;9.80;63.60;;;;;;5095469;28;19920;-56
2022/03/08 11:08:22;;;;;;;;;;;9.80;63.80;;;;;;5096041;28;20351;-56
2022/03/08 11:10:47;;;;;;;;;;;10.00;66.00;;;;;;5095163;28;19953;-55
2022/03/08 11:13:15;;;;;;;;;;;10.10;69.20;;;;;;5095815;28;19912;-55
2022/03/08 11:15:43;;;;;;;;;;;10.20;68.00;;;;;;5095868;28;19912;-56
2022/03/08 11:18:09;;;;;;;;;;;10.20;60.80;;;;;;5094884;28;19952;-55
2022/03/08 11:20:35;;;;;;;;;;;10.20;60.50;;;;;;5095514;28;20003;-56
2022/03/08 11:23:01;;;;;;;;;;;10.20;59.20;;;;;;5095339;28;19919;-56
2022/03/08 11:25:28;;;;;;;;;;;10.20;56.80;;;;;;5092899;28;19916;-56
2022/03/08 11:27:54;;;;;;;;;;;10.30;63.30;;;;;;5095403;28;19957;-56
2022/03/08 11:30:27;;;;;;;;;;;10.50;64.50;;;;;;5095709;28;20317;-55
2022/03/08 11:32:52;;;;;;;;;;;10.60;60.60;;;;;;5094081;28;20014;-56
2022/03/08 11:35:38;;;;;;;;;;;10.70;61.70;;;;;;5080117;28;20010;-55
2022/03/08 11:38:04;;;;;;;;;;;10.70;64.70;;;;;;5101488;28;19911;-55
2022/03/08 11:40:33;;;;;;;;;;;10.60;55.40;;;;;;5111739;28;19961;-56
2022/03/08 11:43:03;;;;;;;;;;;10.70;57.40;;;;;;5094995;28;19947;-56
2022/03/08 11:45:29;;;;;;;;;;;10.70;57.30;;;;;;5094490;28;19985;-55
2022/03/08 11:47:54;;;;;;;;;;;10.80;58.90;;;;;;5094819;28;20433;-56
2022/03/08 11:50:24;;;;;;;;;;;10.80;55.20;;;;;;5095120;28;19916;-56
2022/03/08 11:52:51;;;;;;;;;;;10.90;60.80;;;;;;5094634;28;20076;-56
2022/03/08 11:55:23;;;;;;;;;;;11.00;61.20;;;;;;5115524;28;20532;-56
2022/03/08 11:57:49;;;;;;;;;;;11.10;63.10;;;;;;5115294;28;19908;-56
2022/03/08 12:00:19;;;;;;;;;;;11.20;60.70;;;;;;5114750;28;19999;-54
2022/03/08 12:02:50;;;;;;;;;;;11.30;63.20;;;;;;5115457;28;19908;-54
2022/03/08 12:05:35;;;;;;;;;;;11.40;62.80;;;;;;5096907;28;19916;-56
2022/03/08 12:08:23;;;;;;;;;;;11.60;64.30;;;;;;5095950;28;20263;-56
2022/03/08 12:10:49;;;;;;;;;;;11.60;62.70;;;;;;5111440;28;20003;-55
2022/03/08 12:13:15;;;;;;;;;;;11.60;60.60;;;;;;5107953;28;19970;-55
2022/03/08 12:15:59;;;;;;;;;;;11.60;63.50;;;;;;5093337;28;19916;-55
2022/03/08 12:18:32;;;;;;;;;;;11.80;63.10;;;;;;5078710;28;19912;-56
2022/03/08 12:21:20;;;;;;;;;;;11.80;61.20;;;;;;5098877;28;19912;-56
2022/03/08 12:23:46;;;;;;;;;;;11.80;58.80;;;;;;5109570;28;19931;-56
2022/03/08 12:26:21;;;;;;;;;;;11.90;63.30;;;;;;5085998;28;20008;-55
2022/03/08 12:29:02;;;;;;;;;;;11.90;61.60;;;;;;5094031;28;19908;-54
2022/03/08 12:31:28;;;;;;;;;;;11.90;63.20;;;;;;5094066;28;20010;-55
2022/03/08 12:34:06;;;;;;;;;;;11.90;59.00;;;;;;5086519;28;20003;-55
2022/03/08 12:36:34;;;;;;;;;;;11.90;58.30;;;;;;5073283;28;19909;-55
2022/03/08 12:39:00;;;;;;;;;;;12.00;60.70;;;;;;5073467;28;19961;-55
2022/03/08 12:41:26;;;;;;;;;;;12.00;60.30;;;;;;5074002;28;19912;-55
2022/03/08 12:44:02;;;;;;;;;;;12.10;59.70;;;;;;5073058;28;19920;-55
2022/03/08 12:46:28;;;;;;;;;;;12.20;61.70;;;;;;5073706;28;19920;-56
2022/03/08 12:48:54;;;;;;;;;;;12.20;58.90;;;;;;5073076;28;19953;-56
2022/03/08 12:51:23;;;;;;;;;;;12.30;58.80;;;;;;5073454;28;19909;-56
2022/03/08 12:53:53;;;;;;;;;;;12.30;59.70;;;;;;5073349;28;19930;-55
2022/03/08 12:56:19;;;;;;;;;;;12.30;58.20;;;;;;5072896;28;19915;-56
2022/03/08 12:58:44;;;;;;;;;;;12.30;60.90;;;;;;5073336;28;19908;-55
2022/03/08 13:01:11;;;;;;;;;;;12.40;59.30;;;;;;5073416;28;19940;-55
2022/03/08 13:03:37;;;;;;;;;;;12.40;60.40;;;;;;5088223;28;20420;-55
2022/03/08 13:06:07;;;;;;;;;;;12.40;57.20;;;;;;5093457;28;19916;-55
2022/03/08 13:08:33;;;;;;;;;;;12.40;56.10;;;;;;5093622;28;19915;-55
2022/03/08 13:11:00;;;;;;;;;;;12.30;53.90;;;;;;5092623;28;19998;-55
2022/03/08 13:13:26;;;;;;;;;;;12.40;57.40;;;;;;5093373;28;19908;-54
2022/03/08 13:15:51;;;;;;;;;;;12.40;55.20;;;;;;5093187;28;20281;-55
2022/03/08 13:18:22;;;;;;;;;;;12.40;56.70;;;;;;5093170;28;19908;-56
2022/03/08 13:20:49;;;;;;;;;;;12.50;54.60;;;;;;5093189;28;20290;-56
2022/03/08 13:23:17;;;;;;;;;;;12.40;54.30;;;;;;5093447;28;19908;-56
2022/03/08 13:25:44;;;;;;;;;;;12.60;56.80;;;;;;5092902;28;20006;-55
2022/03/08 13:28:11;;;;;;;;;;;12.70;52.40;;;;;;5093343;28;19908;-54
2022/03/08 13:30:43;;;;;;;;;;;12.70;50.30;;;;;;5093440;28;19912;-56
2022/03/08 13:33:19;;;;;;;;;;;12.90;50.80;;;;;;5081491;28;19921;-56
2022/03/08 13:35:52;;;;;;;;;;;13.40;54.90;;;;;;5073089;28;19955;-55
2022/03/08 13:38:38;;;;;;;;;;;13.70;54.00;;;;;;5072558;28;19909;-56
2022/03/08 13:41:03;;;;;;;;;;;14.00;54.60;;;;;;5065142;28;19966;-56
2022/03/08 13:43:29;;;;;;;;;;;14.20;54.50;;;;;;5072719;28;19908;-55
2022/03/08 13:45:55;;;;;;;;;;;14.10;51.10;;;;;;5072210;28;19943;-54
2022/03/08 13:48:24;;;;;;;;;;;14.10;52.90;;;;;;5072898;28;19958;-56
2022/03/08 13:50:50;;;;;;;;;;;14.10;45.90;;;;;;5072724;28;19908;-56
2022/03/08 13:53:16;;;;;;;;;;;14.30;51.30;;;;;;5072284;28;19916;-56
2022/03/08 13:55:42;;;;;;;;;;;14.40;46.80;;;;;;5072952;28;19909;-55
2022/03/08 13:58:12;;;;;;;;;;;14.80;51.90;;;;;;5072347;28;19913;-56
2022/03/08 14:00:38;;;;;;;;;;;14.80;47.20;;;;;;5072284;28;19962;-56
2022/03/08 14:03:07;;;;;;;;;;;15.10;46.50;;;;;;5080006;28;20010;-56
2022/03/08 14:05:51;;;;;;;;;;;15.10;43.70;;;;;;5092409;28;19958;-55
2022/03/08 14:08:31;;;;;;;;;;;15.30;48.00;;;;;;5092277;28;19969;-56
2022/03/08 14:10:57;;;;;;;;;;;15.40;41.90;;;;;;5092580;28;19908;-56
2022/03/08 14:13:23;;;;;;;;;;;15.50;46.80;;;;;;5087946;28;20009;-55
2022/03/08 14:16:20;;;;;;;;;;;15.60;43.20;;;;;;5109553;28;19911;-56
2022/03/08 14:18:54;;;;;;;;;;;15.70;46.20;;;;;;5054652;28;19908;-55
2022/03/08 14:21:33;;;;;;;;;;;16.00;40.90;;;;;;5087484;28;19920;-55
2022/03/08 14:24:17;;;;;;;;;;;16.30;47.30;;;;;;5091536;28;19959;-56